createdAt,value
2018-07-22T00:00:01.207Z,20.23
2018-07-22T00:02:28.891Z,20.63
2018-07-22T00:04:56.579Z,21.57
2018-07-22T00:07:24.274Z,20.87
2018-07-22T00:09:51.996Z,20.17
2018-07-22T00:12:19.758Z,19.73
2018-07-22T00:14:47.440Z,19.70
2018-07-22T00:17:15.123Z,19.90
2018-07-22T00:19:42.873Z,20.17
2018-07-22T00:22:10.675Z,20.43
2018-07-22T00:24:38.638Z,20.37
2018-07-22T00:27:06.702Z,19.30
2018-07-22T00:29:34.528Z,21.50
2018-07-22T00:32:02.303Z,21.67
2018-07-22T00:34:29.995Z,21.90
2018-07-22T00:36:57.706Z,22.43
2018-07-22T00:39:25.370Z,22.10
2018-07-22T00:41:53.058Z,19.43
2018-07-22T00:44:20.865Z,21.40
2018-07-22T00:46:48.566Z,19.90
2018-07-22T00:49:16.281Z,19.90
2018-07-22T00:51:43.985Z,19.33
2018-07-22T00:54:11.679Z,19.03
2018-07-22T00:56:39.411Z,18.67
2018-07-22T00:59:07.113Z,19.43
2018-07-22T01:01:34.794Z,18.70
2018-07-22T01:04:02.540Z,18.93
2018-07-22T01:06:30.228Z,20.90
2018-07-22T01:08:58.035Z,21.50
2018-07-22T01:11:25.948Z,19.13
2018-07-22T01:13:53.731Z,19.23
2018-07-22T01:16:21.488Z,19.60
2018-07-22T01:18:49.193Z,21.20
2018-07-22T01:21:16.921Z,21.43
2018-07-22T01:23:44.696Z,22.67
2018-07-22T01:26:12.381Z,19.07
2018-07-22T01:28:40.204Z,20.00
2018-07-22T01:31:08.231Z,19.57
2018-07-22T01:33:35.981Z,19.40
2018-07-22T01:36:03.775Z,21.10
2018-07-22T01:38:32.557Z,20.43
2018-07-22T01:41:00.330Z,19.80
2018-07-22T01:43:28.100Z,23.27
2018-07-22T01:45:55.822Z,19.63
2018-07-22T01:48:24.445Z,17.60
2018-07-22T01:50:52.804Z,21.80
2018-07-22T01:53:20.501Z,23.13
2018-07-22T01:55:48.223Z,21.90
2018-07-22T01:58:16.036Z,23.87
2018-07-22T02:00:44.870Z,22.13
2018-07-22T02:03:12.601Z,20.53
2018-07-22T02:05:40.284Z,20.80
2018-07-22T02:08:07.934Z,21.03
2018-07-22T02:10:35.682Z,23.27
2018-07-22T02:13:03.330Z,23.20
2018-07-22T02:15:31.042Z,22.33
2018-07-22T02:17:58.708Z,20.97
2018-07-22T02:20:26.363Z,20.73
2018-07-22T02:22:54.120Z,22.10
2018-07-22T02:25:21.885Z,19.57
2018-07-22T02:27:49.879Z,21.83
2018-07-22T02:30:17.589Z,22.33
2018-07-22T02:32:45.272Z,22.50
2018-07-22T02:35:13.000Z,22.37
2018-07-22T02:37:40.708Z,22.67
2018-07-22T02:40:08.370Z,22.43
2018-07-22T02:42:36.178Z,25.07
2018-07-22T02:45:04.045Z,23.47
2018-07-22T02:47:31.743Z,24.77
2018-07-22T02:49:59.460Z,23.37
2018-07-22T02:52:27.187Z,22.60
2018-07-22T02:54:55.079Z,24.23
2018-07-22T02:57:22.807Z,21.43
2018-07-22T02:59:50.532Z,24.00
2018-07-22T03:02:18.226Z,25.30
2018-07-22T03:04:45.968Z,25.90
2018-07-22T03:07:13.708Z,26.40
2018-07-22T03:09:41.427Z,24.70
2018-07-22T03:12:09.146Z,23.60
2018-07-22T03:14:36.846Z,24.47
2018-07-22T03:17:04.724Z,24.87
2018-07-22T03:19:32.376Z,22.47
2018-07-22T03:22:00.098Z,23.63
2018-07-22T03:24:27.792Z,23.33
2018-07-22T03:26:55.499Z,22.87
2018-07-22T03:29:23.218Z,21.37
2018-07-22T03:31:50.996Z,23.63
2018-07-22T03:34:18.705Z,22.53
2018-07-22T03:36:46.438Z,23.67
2018-07-22T03:39:14.178Z,22.60
2018-07-22T03:41:41.928Z,22.47
2018-07-22T03:44:09.691Z,22.57
2018-07-22T03:46:37.399Z,21.70
2018-07-22T03:49:05.215Z,22.33
2018-07-22T03:51:32.976Z,21.87
2018-07-22T03:54:00.701Z,23.63
2018-07-22T03:56:28.452Z,22.50
2018-07-22T03:58:56.150Z,21.90
2018-07-22T04:01:23.884Z,23.37
2018-07-22T04:03:51.592Z,21.73
2018-07-22T04:06:19.287Z,20.87
2018-07-22T04:08:46.968Z,22.40
2018-07-22T04:11:14.657Z,21.60
2018-07-22T04:13:42.318Z,20.83
2018-07-22T04:16:10.041Z,21.73
2018-07-22T04:18:44.329Z,19.83
2018-07-22T04:21:12.128Z,20.83
2018-07-22T04:23:39.822Z,21.20
2018-07-22T04:26:07.546Z,19.77
2018-07-22T04:28:35.253Z,20.10
2018-07-22T04:31:02.928Z,17.87
2018-07-22T04:33:30.637Z,18.00
2018-07-22T04:35:58.312Z,17.27
2018-07-22T04:38:25.996Z,16.40
2018-07-22T04:40:53.892Z,16.03
2018-07-22T04:43:21.567Z,15.33
2018-07-22T04:45:49.253Z,15.10
2018-07-22T04:48:16.996Z,13.83
2018-07-22T04:50:44.715Z,15.30
2018-07-22T04:53:12.435Z,14.73
2018-07-22T04:55:40.180Z,14.13
2018-07-22T04:58:08.077Z,15.40
2018-07-22T05:00:35.778Z,15.67
2018-07-22T05:03:03.492Z,16.07
2018-07-22T05:05:32.142Z,15.63
2018-07-22T05:07:59.845Z,15.28
2018-07-22T05:10:27.529Z,15.67
2018-07-22T05:12:55.253Z,14.60
2018-07-22T05:15:23.017Z,15.23
2018-07-22T05:17:50.760Z,15.17
2018-07-22T05:20:18.692Z,15.20
2018-07-22T05:22:46.466Z,15.65
2018-07-22T05:25:14.227Z,14.65
2018-07-22T05:27:41.983Z,14.97
2018-07-22T05:30:09.773Z,14.83
2018-07-22T05:32:37.935Z,15.55
2018-07-22T05:35:05.780Z,15.35
2018-07-22T05:37:33.516Z,14.57
2018-07-22T05:40:01.275Z,14.78
2018-07-22T05:42:29.058Z,15.23
2018-07-22T05:44:56.993Z,15.58
2018-07-22T05:47:24.699Z,15.35
2018-07-22T05:49:52.436Z,15.77
2018-07-22T05:52:20.533Z,14.93
2018-07-22T05:54:48.255Z,14.60
2018-07-22T05:57:16.023Z,14.38
2018-07-22T05:59:43.742Z,14.13
2018-07-22T06:02:11.544Z,14.05
2018-07-22T06:04:39.242Z,14.18
2018-07-22T06:07:07.019Z,13.93
2018-07-22T06:09:34.796Z,14.65
2018-07-22T06:12:02.614Z,15.00
2018-07-22T06:14:30.423Z,14.15
2018-07-22T06:16:58.186Z,14.40
2018-07-22T06:19:25.870Z,15.15
2018-07-22T06:21:53.698Z,14.40
2018-07-22T06:24:21.445Z,14.85
2018-07-22T06:26:49.109Z,13.95
2018-07-22T06:29:17.589Z,14.70
2018-07-22T06:31:45.459Z,13.72
2018-07-22T06:34:13.175Z,14.85
2018-07-22T06:36:40.887Z,14.58
2018-07-22T06:39:10.938Z,14.83
2018-07-22T06:41:38.767Z,14.90
2018-07-22T06:44:06.538Z,14.25
2018-07-22T06:46:34.255Z,14.60
2018-07-22T06:49:01.888Z,14.45
2018-07-22T06:51:29.656Z,15.60
2018-07-22T06:53:57.459Z,15.90
2018-07-22T06:56:25.258Z,16.05
2018-07-22T06:58:53.012Z,17.15
2018-07-22T07:01:20.736Z,17.07
2018-07-22T07:03:48.492Z,18.02
2018-07-22T07:06:16.271Z,18.55
2018-07-22T07:08:43.969Z,18.30
2018-07-22T07:11:11.732Z,19.73
2018-07-22T07:13:40.214Z,19.48
2018-07-22T07:16:09.670Z,20.12
2018-07-22T07:18:38.091Z,18.75
2018-07-22T07:21:06.524Z,19.80
2018-07-22T07:23:35.348Z,19.30
2018-07-22T07:26:03.190Z,19.35
2018-07-22T07:28:30.944Z,19.27
2018-07-22T07:30:58.829Z,20.08
2018-07-22T07:33:26.645Z,18.50
2018-07-22T07:35:54.435Z,19.48
2018-07-22T07:38:22.156Z,19.55
2018-07-22T07:40:50.027Z,19.10
2018-07-22T07:43:18.135Z,19.73
2018-07-22T07:45:45.991Z,20.83
2018-07-22T07:48:13.728Z,20.15
2018-07-22T07:50:41.553Z,19.03
2018-07-22T07:53:09.616Z,19.47
2018-07-22T07:55:37.389Z,20.17
2018-07-22T07:58:05.271Z,19.60
2018-07-22T08:00:33.077Z,19.63
2018-07-22T08:03:00.833Z,19.62
2018-07-22T08:05:28.758Z,18.65
2018-07-22T08:07:56.560Z,20.05
2018-07-22T08:10:24.460Z,20.00
2018-07-22T08:12:52.235Z,18.83
2018-07-22T08:15:20.028Z,20.00
2018-07-22T08:17:47.805Z,20.27
2018-07-22T08:20:16.197Z,19.20
2018-07-22T08:22:44.128Z,20.00
2018-07-22T08:25:12.277Z,19.97
2018-07-22T08:27:40.096Z,19.70
2018-07-22T08:30:08.023Z,18.70
2018-07-22T08:32:36.006Z,19.27
2018-07-22T08:35:04.799Z,19.82
2018-07-22T08:37:32.844Z,19.62
2018-07-22T08:40:00.560Z,19.53
2018-07-22T08:42:28.326Z,20.07
2018-07-22T08:44:56.104Z,21.40
2018-07-22T08:47:23.849Z,21.03
2018-07-22T08:49:51.564Z,20.67
2018-07-22T08:52:19.316Z,20.27
2018-07-22T08:54:47.178Z,21.37
2018-07-22T08:57:14.880Z,21.33
2018-07-22T08:59:42.631Z,21.43
2018-07-22T09:02:10.822Z,20.40
2018-07-22T09:04:38.551Z,20.23
2018-07-22T09:07:06.553Z,20.20
2018-07-22T09:09:34.241Z,22.13
2018-07-22T09:12:01.937Z,22.70
2018-07-22T09:14:29.595Z,19.50
2018-07-22T09:16:57.404Z,11.13
2018-07-22T09:19:25.978Z,14.87
2018-07-22T09:21:53.715Z,7.90
2018-07-22T09:24:21.338Z,4.77
2018-07-22T09:26:48.991Z,6.20
2018-07-22T09:29:16.721Z,7.13
2018-07-22T09:31:44.442Z,8.00
2018-07-22T09:34:12.178Z,9.97
2018-07-22T09:36:40.035Z,9.53
2018-07-22T09:39:09.690Z,8.37
2018-07-22T09:41:37.411Z,10.10
2018-07-22T09:44:05.230Z,9.70
2018-07-22T09:46:32.959Z,10.13
2018-07-22T09:49:00.717Z,9.10
2018-07-22T09:51:28.415Z,9.03
2018-07-22T09:53:56.152Z,10.47
2018-07-22T09:56:23.808Z,9.97
2018-07-22T09:58:51.463Z,10.07
2018-07-22T10:01:19.244Z,10.33
2018-07-22T10:03:46.928Z,9.70
2018-07-22T10:06:14.710Z,9.87
2018-07-22T10:08:42.455Z,9.63
2018-07-22T10:11:10.228Z,10.43
2018-07-22T10:13:38.041Z,9.20
2018-07-22T10:16:05.783Z,10.23
2018-07-22T10:18:33.510Z,12.00
2018-07-22T10:21:01.283Z,10.93
2018-07-22T10:23:29.009Z,11.50
2018-07-22T10:25:56.707Z,10.03
2018-07-22T10:28:24.461Z,13.40
2018-07-22T10:30:52.168Z,16.03
2018-07-22T10:33:20.896Z,18.50
2018-07-22T10:35:48.664Z,15.03
2018-07-22T10:38:16.406Z,13.87
2018-07-22T10:40:44.054Z,13.23
2018-07-22T10:43:11.955Z,13.60
2018-07-22T10:45:39.764Z,14.13
2018-07-22T10:48:07.498Z,15.63
2018-07-22T10:50:35.206Z,17.33
2018-07-22T10:53:02.856Z,17.73
2018-07-22T10:55:30.620Z,16.67
2018-07-22T10:57:58.320Z,14.87
2018-07-22T11:00:26.020Z,13.93
2018-07-22T11:02:53.752Z,13.33
2018-07-22T11:05:21.468Z,15.80
2018-07-22T11:07:49.715Z,14.90
2018-07-22T11:10:17.436Z,15.00
2018-07-22T11:12:45.137Z,14.97
2018-07-22T11:15:12.893Z,15.77
2018-07-22T11:17:40.716Z,15.60
2018-07-22T11:20:08.452Z,13.53
2018-07-22T11:22:36.187Z,14.30
2018-07-22T11:25:03.991Z,14.83
2018-07-22T11:27:31.782Z,13.13
2018-07-22T11:29:59.499Z,14.80
2018-07-22T11:32:27.205Z,12.47
2018-07-22T11:34:55.764Z,13.23
2018-07-22T11:37:23.529Z,14.33
2018-07-22T11:39:51.213Z,13.07
2018-07-22T11:42:18.994Z,12.57
2018-07-22T11:44:46.709Z,13.63
2018-07-22T11:47:14.451Z,11.97
2018-07-22T11:49:42.157Z,12.80
2018-07-22T11:52:09.854Z,14.67
2018-07-22T11:54:37.634Z,12.07
2018-07-22T11:57:05.326Z,11.33
2018-07-22T11:59:33.006Z,11.10
2018-07-22T12:02:00.791Z,9.27
2018-07-22T12:04:28.486Z,9.13
2018-07-22T12:06:56.221Z,10.87
2018-07-22T12:09:23.931Z,9.70
2018-07-22T12:11:51.634Z,10.57
2018-07-22T12:14:19.436Z,10.57
2018-07-22T12:16:47.165Z,9.60
2018-07-22T12:19:14.937Z,9.97
2018-07-22T12:21:42.654Z,9.57
2018-07-22T12:24:10.430Z,9.83
2018-07-22T12:26:38.205Z,8.60
2018-07-22T12:29:05.894Z,8.13
2018-07-22T12:31:33.678Z,8.50
2018-07-22T12:34:01.399Z,8.27
2018-07-22T12:36:29.149Z,8.27
2018-07-22T12:38:56.925Z,8.17
2018-07-22T12:41:24.683Z,8.40
2018-07-22T12:43:52.508Z,9.20
2018-07-22T12:46:20.257Z,8.00
2018-07-22T12:48:48.084Z,6.13
2018-07-22T12:51:15.870Z,6.77
2018-07-22T12:53:43.634Z,6.03
2018-07-22T12:56:11.491Z,6.23
2018-07-22T12:58:39.202Z,6.30
2018-07-22T13:01:06.929Z,6.53
2018-07-22T13:03:34.724Z,6.33
2018-07-22T13:06:02.595Z,6.90
2018-07-22T13:08:30.349Z,7.20
2018-07-22T13:10:58.085Z,6.87
2018-07-22T13:13:25.845Z,7.30
2018-07-22T13:15:53.609Z,7.70
2018-07-22T13:18:21.420Z,8.00
2018-07-22T13:20:49.244Z,8.40
2018-07-22T13:23:17.234Z,9.13
2018-07-22T13:25:44.980Z,9.78
2018-07-22T13:28:12.769Z,10.23
2018-07-22T13:30:40.672Z,10.03
2018-07-22T13:33:08.558Z,10.60
2018-07-22T13:35:36.471Z,11.65
2018-07-22T13:38:04.334Z,10.98
2018-07-22T13:40:32.185Z,11.70
2018-07-22T13:43:00.054Z,11.90
2018-07-22T13:45:27.998Z,12.85
2018-07-22T13:47:55.713Z,12.45
2018-07-22T13:50:23.488Z,11.28
2018-07-22T13:52:51.370Z,11.30
2018-07-22T13:55:19.170Z,11.88
2018-07-22T13:57:46.996Z,12.65
2018-07-22T14:00:14.817Z,12.97
2018-07-22T14:02:42.652Z,12.87
2018-07-22T14:05:10.491Z,11.97
2018-07-22T14:07:38.364Z,12.10
2018-07-22T14:10:06.296Z,10.93
2018-07-22T14:12:34.031Z,11.33
2018-07-22T14:15:01.826Z,10.63
2018-07-22T14:17:29.661Z,10.25
2018-07-22T14:19:57.691Z,10.48
2018-07-22T14:22:26.565Z,9.98
2018-07-22T14:24:54.341Z,10.40
2018-07-22T14:27:22.661Z,8.95
2018-07-22T14:29:50.417Z,9.20
2018-07-22T14:32:18.187Z,8.95
2018-07-22T14:34:45.870Z,9.25
2018-07-22T14:37:13.606Z,9.30
2018-07-22T14:39:42.031Z,9.60
2018-07-22T14:42:09.875Z,8.43
2018-07-22T14:44:37.571Z,9.55
2018-07-22T14:47:05.699Z,9.80
2018-07-22T14:49:33.442Z,9.08
2018-07-22T14:52:01.152Z,7.65
2018-07-22T14:54:28.845Z,8.13
2018-07-22T14:56:56.552Z,8.08
2018-07-22T14:59:24.334Z,7.42
2018-07-22T15:01:52.165Z,7.85
2018-07-22T15:04:19.915Z,7.37
2018-07-22T15:06:47.620Z,8.08
2018-07-22T15:09:15.303Z,7.45
2018-07-22T15:11:51.510Z,7.03
2018-07-22T15:14:19.232Z,7.05
2018-07-22T15:16:47.725Z,8.18
2018-07-22T15:19:15.485Z,7.40
2018-07-22T15:21:43.188Z,7.72
2018-07-22T15:24:11.321Z,7.37
2018-07-22T15:26:39.159Z,7.33
2018-07-22T15:29:07.044Z,8.13
2018-07-22T15:31:35.576Z,7.78
2018-07-22T15:34:03.386Z,7.87
2018-07-22T15:36:31.267Z,7.62
2018-07-22T15:38:59.035Z,7.70
2018-07-22T15:41:26.807Z,7.35
2018-07-22T15:43:54.680Z,7.58
2018-07-22T15:46:22.454Z,7.47
2018-07-22T15:48:50.199Z,7.20
2018-07-22T15:51:18.004Z,6.00
2018-07-22T15:53:45.709Z,5.58
2018-07-22T15:56:13.365Z,4.60
2018-07-22T15:58:41.149Z,4.67
2018-07-22T16:01:08.891Z,4.53
2018-07-22T16:03:36.524Z,3.85
2018-07-22T16:06:04.281Z,4.30
2018-07-22T16:08:31.972Z,3.80
2018-07-22T16:10:59.671Z,3.35
2018-07-22T16:13:27.400Z,3.95
2018-07-22T16:15:55.140Z,3.30
2018-07-22T16:18:22.892Z,3.60
2018-07-22T16:20:50.575Z,3.22
2018-07-22T16:23:18.668Z,3.63
2018-07-22T16:25:46.487Z,3.40
2018-07-22T16:28:14.312Z,2.80
2018-07-22T16:30:42.689Z,3.47
2018-07-22T16:33:10.585Z,3.90
2018-07-22T16:35:38.530Z,3.20
2018-07-22T16:38:07.326Z,3.85
2018-07-22T16:40:35.156Z,4.10
2018-07-22T16:43:02.915Z,3.70
2018-07-22T16:45:30.633Z,3.70
2018-07-22T16:47:58.372Z,3.73
2018-07-22T16:50:26.176Z,3.93
2018-07-22T16:52:53.965Z,4.00
2018-07-22T16:55:21.709Z,3.72
2018-07-22T16:57:50.403Z,3.87
2018-07-22T17:00:18.208Z,4.00
2018-07-22T17:02:46.003Z,4.43
2018-07-22T17:05:13.816Z,4.20
2018-07-22T17:07:41.624Z,4.10
2018-07-22T17:10:09.517Z,4.37
2018-07-22T17:12:37.333Z,4.20
2018-07-22T17:15:05.043Z,4.90
2018-07-22T17:17:32.837Z,4.53
2018-07-22T17:20:00.583Z,4.70
2018-07-22T17:22:28.434Z,5.10
2018-07-22T17:24:56.191Z,4.42
2018-07-22T17:27:23.973Z,4.50
2018-07-22T17:29:51.772Z,4.90
2018-07-22T17:32:19.702Z,4.40
2018-07-22T17:34:47.523Z,4.60
2018-07-22T17:37:15.247Z,4.57
2018-07-22T17:39:42.990Z,4.10
2018-07-22T17:42:10.896Z,4.40
2018-07-22T17:44:38.803Z,5.40
2018-07-22T17:47:06.513Z,4.70
2018-07-22T17:49:34.424Z,4.87
2018-07-22T17:52:02.142Z,4.83
2018-07-22T17:54:29.926Z,5.20
2018-07-22T17:56:57.708Z,5.10
2018-07-22T17:59:25.555Z,4.57
2018-07-22T18:01:53.275Z,4.80
2018-07-22T18:04:21.075Z,4.70
2018-07-22T18:06:48.806Z,5.37
2018-07-22T18:09:16.567Z,4.73
2018-07-22T18:11:44.376Z,4.73
2018-07-22T18:14:12.167Z,5.30
2018-07-22T18:16:40.127Z,5.70
2018-07-22T18:19:08.272Z,5.67
2018-07-22T18:21:36.061Z,5.00
2018-07-22T18:24:03.927Z,5.50
2018-07-22T18:26:31.812Z,5.13
2018-07-22T18:29:00.405Z,5.43
2018-07-22T18:31:28.200Z,5.87
2018-07-22T18:33:56.053Z,4.93
2018-07-22T18:36:23.846Z,6.07
2018-07-22T18:38:51.617Z,4.90
2018-07-22T18:41:20.044Z,5.07
2018-07-22T18:43:47.832Z,5.97
2018-07-22T18:46:15.576Z,5.77
2018-07-22T18:48:43.343Z,4.57
2018-07-22T18:51:11.135Z,5.77
2018-07-22T18:53:39.158Z,5.83
2018-07-22T18:56:07.133Z,5.60
2018-07-22T18:58:34.903Z,5.83
2018-07-22T19:01:02.719Z,5.37
2018-07-22T19:03:30.771Z,5.57
2018-07-22T19:05:58.536Z,4.90
2018-07-22T19:08:26.318Z,5.27
2018-07-22T19:10:54.249Z,4.87
2018-07-22T19:13:21.984Z,5.33
2018-07-22T19:15:49.779Z,5.63
2018-07-22T19:18:17.523Z,5.53
2018-07-22T19:20:45.263Z,5.80
2018-07-22T19:23:12.992Z,5.23
2018-07-22T19:25:40.679Z,5.00
2018-07-22T19:28:08.505Z,5.63
2018-07-22T19:30:36.288Z,5.43
2018-07-22T19:33:04.066Z,4.80
2018-07-22T19:35:31.859Z,6.13
2018-07-22T19:37:59.596Z,5.77
2018-07-22T19:40:27.440Z,5.53
2018-07-22T19:42:55.389Z,6.13
2018-07-22T19:45:23.146Z,5.67
2018-07-22T19:47:50.952Z,6.07
2018-07-22T19:50:18.717Z,5.70
2018-07-22T19:52:46.415Z,6.40
2018-07-22T19:55:14.108Z,6.10
2018-07-22T19:57:41.859Z,6.07
2018-07-22T20:00:09.624Z,7.07
2018-07-22T20:02:37.311Z,5.83
2018-07-22T20:05:05.192Z,7.57
2018-07-22T20:07:32.940Z,7.83
2018-07-22T20:10:00.716Z,7.57
2018-07-22T20:12:28.529Z,7.40
2018-07-22T20:14:56.240Z,8.50
2018-07-22T20:17:23.993Z,6.93
2018-07-22T20:19:51.870Z,8.77
2018-07-22T20:22:19.597Z,8.33
2018-07-22T20:24:47.300Z,9.17
2018-07-22T20:27:15.023Z,8.90
2018-07-22T20:29:42.721Z,10.10
2018-07-22T20:32:10.451Z,9.67
2018-07-22T20:34:38.244Z,10.20
2018-07-22T20:37:07.376Z,9.23
2018-07-22T20:39:35.154Z,8.60
2018-07-22T20:42:03.005Z,8.90
2018-07-22T20:44:30.704Z,8.80
2018-07-22T20:46:58.413Z,8.77
2018-07-22T20:49:26.166Z,9.60
2018-07-22T20:51:53.907Z,9.27
2018-07-22T20:54:21.643Z,8.90
2018-07-22T20:56:49.353Z,9.47
2018-07-22T20:59:17.090Z,10.60
2018-07-22T21:01:44.840Z,10.17
2018-07-22T21:04:12.533Z,12.00
2018-07-22T21:06:40.222Z,10.37
2018-07-22T21:09:08.767Z,9.80
2018-07-22T21:11:47.617Z,9.60
2018-07-22T21:14:15.367Z,10.67
2018-07-22T21:16:43.108Z,9.93
2018-07-22T21:19:10.792Z,19.77
2018-07-22T21:21:38.541Z,8.77
2018-07-22T21:24:06.219Z,12.33
2018-07-22T21:26:33.917Z,19.53
2018-07-22T21:29:01.580Z,9.23
2018-07-22T21:31:29.239Z,12.60
2018-07-22T21:33:56.903Z,10.90
2018-07-22T21:36:24.590Z,9.87
2018-07-22T21:38:52.295Z,7.67
2018-07-22T21:41:19.966Z,14.50
2018-07-22T21:43:47.640Z,8.63
2018-07-22T21:46:15.352Z,11.77
2018-07-22T21:48:43.088Z,8.33
2018-07-22T21:51:10.774Z,7.57
2018-07-22T21:53:38.463Z,8.73
2018-07-22T21:56:06.748Z,10.97
2018-07-22T21:58:34.409Z,9.50
2018-07-22T22:01:02.665Z,20.83
2018-07-22T22:03:30.366Z,10.37
2018-07-22T22:05:58.413Z,9.53
2018-07-22T22:08:26.109Z,9.00
2018-07-22T22:10:53.838Z,8.70
2018-07-22T22:13:21.558Z,10.70
2018-07-22T22:15:49.248Z,23.37
2018-07-22T22:18:16.960Z,21.10
2018-07-22T22:20:44.716Z,25.60
2018-07-22T22:23:12.424Z,15.80
2018-07-22T22:25:40.112Z,15.47
2018-07-22T22:28:07.805Z,24.60
2018-07-22T22:30:35.589Z,8.60
2018-07-22T22:33:03.320Z,23.30
2018-07-22T22:35:31.003Z,12.20
2018-07-22T22:37:58.671Z,11.07
2018-07-22T22:40:26.408Z,8.13
2018-07-22T22:42:54.065Z,6.63
2018-07-22T22:45:21.742Z,6.83
2018-07-22T22:47:49.352Z,5.77
2018-07-22T22:50:17.115Z,6.37
2018-07-22T22:52:44.793Z,11.80
2018-07-22T22:55:12.482Z,8.20
2018-07-22T22:58:44.923Z,6.27
2018-07-22T23:01:12.599Z,7.10
2018-07-22T23:03:40.253Z,5.57
2018-07-22T23:06:07.885Z,5.10
2018-07-22T23:08:35.626Z,6.27
2018-07-22T23:11:03.356Z,6.00
2018-07-22T23:13:31.025Z,41.00
2018-07-22T23:15:58.713Z,9.73
2018-07-22T23:18:26.418Z,10.90
2018-07-22T23:20:54.063Z,12.43
2018-07-22T23:23:21.768Z,7.50
2018-07-22T23:25:49.481Z,8.77
2018-07-22T23:28:17.234Z,13.63
2018-07-22T23:30:44.898Z,13.53
2018-07-22T23:33:12.608Z,11.47
2018-07-22T23:35:40.312Z,10.43
2018-07-22T23:38:08.040Z,14.27
2018-07-22T23:40:35.726Z,10.37
2018-07-22T23:43:03.514Z,10.27
2018-07-22T23:45:31.167Z,19.57
2018-07-22T23:47:58.817Z,22.10
2018-07-22T23:50:26.527Z,9.77
2018-07-22T23:52:54.202Z,8.63
2018-07-22T23:55:21.884Z,23.67
2018-07-22T23:57:49.573Z,8.50
